メインページ
METAR-TAF:

METAR-TAF

空港 :

札幌飛行場

札幌, 日本

緯度: 43-07N, 経度: 141-23E, 海抜: 8m

現時点の気象観測

当レポートは12時間34分前の23:24(UTC)に作成
北西の風 10kt
気温 15°C
湿度 48%
気圧 1019 hPa
視程10km以上
高度3000ftの雲はほとんどない
高度10000ftの雲は散在している

METAR: RJCO 192324Z 32010KT 9999 FEW030 SCT100 15/04 Q1019 RMK 1CU030 3AC100 A3009

時間: 20:58 (11:58 UTC)


TAF: 見つかりません

4,000以上の空港の気象観測と天気予報(METAR報とTAF報)

利用可能な観測所は地図上に黄色い丸と赤い丸で示す。

丸の上にカーソルを重ねると観測所名を参照できる。

次にクリックすると気象観測と天気予報を参照できる。

マップの切り替え:黒色「×」印の緑ボタンをクリックして拡大、「-」印の緑ボタンをクリックして縮小、緑色の三角印をクリックして隣りの地図に切り替え


METAR-TAF: